Time;durP1;ratioP1;P1;durP2;ratioP2;P2;SDS_P1;SDS_P2;PMS_P1;PMS_P2;Temp;Humidity;BMP_temperature;BMP_pressure;BME280_temperature;BME280_humidity;BME280_pressure;Samples;Min_cycle;Max_cycle;Signal;HPM_P1;HPM_P2
2022/07/30 00:00:41;;;;;;;22.40;7.70;;;;;;;17.18;100.00;101646.38;5053180;28;20055;-64
2022/07/30 00:03:06;;;;;;;21.05;7.13;;;;;;;17.06;100.00;101644.69;5053140;28;20055;-64
2022/07/30 00:05:32;;;;;;;22.35;8.13;;;;;;;17.05;100.00;101637.59;5053328;28;20017;-65
2022/07/30 00:07:57;;;;;;;22.13;7.45;;;;;;;16.94;100.00;101631.47;5053144;28;20075;-64
2022/07/30 00:10:22;;;;;;;21.38;7.20;;;;;;;16.98;100.00;101643.91;5053433;28;20075;-65
2022/07/30 00:12:48;;;;;;;20.55;7.57;;;;;;;17.14;100.00;101633.94;5052886;28;20478;-65
2022/07/30 00:15:13;;;;;;;20.17;7.20;;;;;;;17.06;100.00;101634.00;5052979;28;20029;-65
2022/07/30 00:17:39;;;;;;;20.33;7.20;;;;;;;17.01;100.00;101630.50;5052992;28;20036;-65
2022/07/30 00:20:04;;;;;;;22.13;7.88;;;;;;;17.02;100.00;101626.94;5051759;28;20095;-63
2022/07/30 00:22:30;;;;;;;23.35;7.50;;;;;;;17.03;100.00;101623.34;5053224;28;20057;-64
2022/07/30 00:24:56;;;;;;;20.90;7.45;;;;;;;16.98;100.00;101618.97;5052808;28;20033;-63
2022/07/30 00:27:21;;;;;;;20.58;7.30;;;;;;;16.85;100.00;101623.53;5052387;28;20106;-64
2022/07/30 00:29:47;;;;;;;19.02;7.15;;;;;;;16.93;100.00;101626.16;5052464;28;20025;-63
2022/07/30 00:32:12;;;;;;;19.65;7.50;;;;;;;16.90;100.00;101629.72;5052728;28;20057;-63
2022/07/30 00:34:37;;;;;;;20.40;7.20;;;;;;;16.83;100.00;101630.66;5053125;28;20104;-63
2022/07/30 00:37:03;;;;;;;21.08;7.90;;;;;;;16.71;100.00;101632.53;5052646;28;20494;-63
2022/07/30 00:39:29;;;;;;;21.10;8.02;;;;;;;16.67;100.00;101637.91;5052423;28;20542;-63
2022/07/30 00:41:57;;;;;;;22.58;8.20;;;;;;;16.48;100.00;101647.84;5052994;28;20029;-63
2022/07/30 00:44:23;;;;;;;21.30;8.25;;;;;;;16.37;100.00;101635.47;5052372;28;20032;-63
2022/07/30 00:46:48;;;;;;;21.67;8.77;;;;;;;16.39;100.00;101635.44;5052496;28;20029;-63
2022/07/30 00:49:14;;;;;;;22.70;9.23;;;;;;;16.20;100.00;101626.69;5052765;28;20103;-65
2022/07/30 00:51:39;;;;;;;21.70;9.32;;;;;;;16.16;100.00;101630.28;5052660;28;20474;-65
2022/07/30 00:54:04;;;;;;;23.83;9.57;;;;;;;16.09;100.00;101632.09;5052227;28;20399;-65
2022/07/30 00:56:30;;;;;;;22.80;10.07;;;;;;;16.10;100.00;101638.31;5052807;28;20029;-66
2022/07/30 00:58:55;;;;;;;23.02;10.25;;;;;;;15.97;100.00;101632.16;5052256;28;20099;-65
2022/07/30 01:01:20;;;;;;;23.75;10.52;;;;;;;15.99;100.00;101631.28;5052160;28;20121;-64
2022/07/30 01:03:46;;;;;;;21.70;9.55;;;;;;;16.02;100.00;101623.25;5052553;28;20028;-65
2022/07/30 01:06:11;;;;;;;24.70;10.50;;;;;;;16.05;100.00;101630.34;5052674;28;20096;-65
2022/07/30 01:08:36;;;;;;;21.88;10.52;;;;;;;16.04;100.00;101620.56;5052701;28;20107;-65
2022/07/30 01:11:02;;;;;;;22.40;9.65;;;;;;;16.13;100.00;101622.28;5084123;28;20033;-66
2022/07/30 01:13:28;;;;;;;21.67;9.63;;;;;;;16.14;100.00;101619.63;5052569;28;20087;-65
2022/07/30 01:15:53;;;;;;;22.02;9.50;;;;;;;16.14;100.00;101613.41;5052736;28;20049;-66
2022/07/30 01:18:21;;;;;;;22.70;10.07;;;;;;;16.07;100.00;101620.53;5052310;28;20522;-66
2022/07/30 01:20:55;;;;;;;24.30;10.32;;;;;;;15.95;100.00;101616.19;5052157;28;20032;-66
2022/07/30 01:23:33;;;;;;;22.88;10.63;;;;;;;15.92;100.00;101615.31;5052195;28;20021;-66
2022/07/30 01:26:04;;;;;;;23.85;10.48;;;;;;;15.86;100.00;101616.25;5052584;28;20033;-65
2022/07/30 01:28:34;;;;;;;22.77;11.27;;;;;;;15.76;100.00;101625.16;5052070;28;20033;-65
2022/07/30 01:31:02;;;;;;;25.20;11.40;;;;;;;15.73;100.00;101623.38;5052252;28;20094;-66
2022/07/30 01:33:29;;;;;;;25.55;12.00;;;;;;;15.66;100.00;101621.63;5052191;28;20407;-66
2022/07/30 01:35:57;;;;;;;24.45;11.73;;;;;;;15.74;100.00;101619.81;5052328;28;20104;-65
2022/07/30 01:38:26;;;;;;;23.58;11.48;;;;;;;15.73;100.00;101615.38;5052024;28;20035;-66
2022/07/30 01:40:52;;;;;;;23.85;11.70;;;;;;;15.72;100.00;101623.38;5055076;28;20502;-65
2022/07/30 01:43:19;;;;;;;22.83;11.05;;;;;;;15.68;100.00;101622.50;5055751;28;20056;-64
2022/07/30 01:45:47;;;;;;;25.13;11.95;;;;;;;15.54;100.00;101625.22;5055874;28;20078;-67
2022/07/30 01:48:15;;;;;;;23.67;11.68;;;;;;;15.54;100.00;101630.56;5055495;28;20580;-65
2022/07/30 01:50:44;;;;;;;24.88;13.60;;;;;;;15.43;100.00;101624.38;5055789;28;20036;-65
2022/07/30 01:53:14;;;;;;;26.25;13.98;;;;;;;15.27;100.00;101624.41;5055383;28;20048;-66
2022/07/30 01:55:41;;;;;;;25.38;13.65;;;;;;;15.25;100.00;101623.53;5055371;28;20043;-65
2022/07/30 01:58:09;;;;;;;26.50;13.95;;;;;;;15.22;100.00;101634.22;5055848;28;20020;-66
2022/07/30 02:00:38;;;;;;;26.75;13.55;;;;;;;15.16;100.00;101629.78;5051857;28;20048;-66
2022/07/30 02:03:07;;;;;;;28.23;15.07;;;;;;;15.14;100.00;101625.34;5051275;28;20052;-66
2022/07/30 02:05:34;;;;;;;28.83;15.13;;;;;;;15.11;100.00;101626.22;5055610;28;20028;-66
2022/07/30 02:08:02;;;;;;;27.90;15.65;;;;;;;15.07;100.00;101623.59;5055327;28;20497;-66
2022/07/30 02:10:35;;;;;;;28.58;15.57;;;;;;;15.14;100.00;101628.91;5055147;28;20479;-66
2022/07/30 02:13:03;;;;;;;24.60;14.27;;;;;;;15.16;100.00;101628.91;5055203;28;20033;-66
2022/07/30 02:15:37;;;;;;;26.83;14.88;;;;;;;15.15;100.00;101627.13;5055341;28;20040;-65
2022/07/30 02:18:06;;;;;;;27.15;15.68;;;;;;;15.07;100.00;101629.81;5055230;28;20091;-65
2022/07/30 02:20:33;;;;;;;27.85;15.45;;;;;;;15.09;100.00;101633.34;5055027;28;20032;-63
2022/07/30 02:23:07;;;;;;;27.52;16.40;;;;;;;15.10;100.00;101634.22;5054857;28;20025;-63
2022/07/30 02:25:37;;;;;;;26.10;15.93;;;;;;;15.02;100.00;101630.72;5054154;28;20037;-63
2022/07/30 02:28:08;;;;;;;26.95;16.58;;;;;;;15.03;100.00;101627.13;5055074;28;20025;-63
2022/07/30 02:30:36;;;;;;;27.35;15.73;;;;;;;15.08;100.00;101626.25;5054988;28;20028;-63
2022/07/30 02:33:04;;;;;;;25.95;15.27;;;;;;;15.01;100.00;101631.59;5055039;28;20052;-63
2022/07/30 02:35:31;;;;;;;27.73;16.55;;;;;;;15.03;100.00;101627.13;5054928;28;20025;-62
2022/07/30 02:37:57;;;;;;;29.17;17.00;;;;;;;15.03;100.00;101632.47;5053593;28;20071;-63
2022/07/30 02:40:22;;;;;;;28.42;16.30;;;;;;;14.91;100.00;101634.28;5054530;28;20052;-63
2022/07/30 02:42:50;;;;;;;26.27;16.15;;;;;;;14.91;100.00;101639.59;5055127;28;20036;-63
2022/07/30 02:45:16;;;;;;;26.95;17.33;;;;;;;14.85;100.00;101630.72;5054691;28;20432;-62
2022/07/30 02:47:43;;;;;;;28.38;15.20;;;;;;;14.82;100.00;101634.25;5054497;28;20025;-63
2022/07/30 02:50:10;;;;;;;27.55;15.10;;;;;;;14.76;100.00;101631.59;5054283;28;20080;-63
2022/07/30 02:52:38;;;;;;;27.58;16.77;;;;;;;14.77;100.00;101634.28;5050331;28;20051;-62
2022/07/30 02:55:04;;;;;;;27.83;16.27;;;;;;;14.67;100.00;101624.50;5054652;28;20431;-63
2022/07/30 02:57:31;;;;;;;26.65;16.85;;;;;;;14.64;100.00;101628.06;5054505;28;20020;-63
2022/07/30 02:59:58;;;;;;;28.15;16.33;;;;;;;14.62;100.00;101642.25;5054209;28;20074;-63
2022/07/30 03:02:23;;;;;;;28.17;17.20;;;;;;;14.56;100.00;101639.56;5054521;28;20033;-66
2022/07/30 03:04:50;;;;;;;28.52;17.85;;;;;;;14.48;100.00;101643.09;5054387;28;20360;-65
2022/07/30 03:07:16;;;;;;;29.88;18.23;;;;;;;14.41;100.00;101645.75;5054372;28;20025;-65
2022/07/30 03:09:43;;;;;;;29.70;18.00;;;;;;;14.39;100.00;101642.22;5054125;28;20124;-64
2022/07/30 03:12:13;;;;;;;29.00;18.05;;;;;;;14.35;100.00;101643.09;5054326;28;20104;-66
2022/07/30 03:14:38;;;;;;;30.10;19.45;;;;;;;14.32;100.00;101648.41;5050316;28;20056;-66
2022/07/30 03:17:06;;;;;;;28.95;19.25;;;;;;;14.28;100.00;101645.75;5053931;28;20416;-68
2022/07/30 03:19:33;;;;;;;28.83;17.92;;;;;;;14.26;100.00;101647.50;5054386;28;20025;-65
2022/07/30 03:22:01;;;;;;;31.65;18.60;;;;;;;14.27;100.00;101646.63;5054023;28;20028;-65
2022/07/30 03:24:28;;;;;;;28.98;18.23;;;;;;;14.27;100.00;101651.94;5054103;28;20058;-66
2022/07/30 03:26:55;;;;;;;29.23;18.45;;;;;;;14.29;100.00;101644.84;5054242;28;20037;-66
2022/07/30 03:29:23;;;;;;;30.48;17.50;;;;;;;14.26;100.00;101642.19;5053635;28;20482;-65
2022/07/30 03:31:50;;;;;;;30.50;20.17;;;;;;;14.29;100.00;101641.31;5053669;28;20056;-66
2022/07/30 03:34:16;;;;;;;29.50;18.30;;;;;;;14.33;100.00;101636.88;5053728;28;20400;-66
2022/07/30 03:36:42;;;;;;;27.23;17.15;;;;;;;14.22;100.00;101648.38;5053472;28;20082;-66
2022/07/30 03:39:08;;;;;;;26.70;15.77;;;;;;;14.20;100.00;101641.28;5053800;28;20033;-66
2022/07/30 03:41:36;;;;;;;26.95;16.58;;;;;;;14.16;100.00;101639.53;5053837;28;20025;-63
2022/07/30 03:44:02;;;;;;;29.27;18.17;;;;;;;14.15;100.00;101640.38;5053679;28;20057;-63
2022/07/30 03:46:29;;;;;;;29.77;19.20;;;;;;;14.05;100.00;101653.69;5053362;28;20198;-63
2022/07/30 03:48:56;;;;;;;28.05;18.90;;;;;;;13.95;100.00;101650.09;5053400;28;20029;-63
2022/07/30 03:51:22;;;;;;;26.35;17.13;;;;;;;13.95;100.00;101649.22;5053476;28;20063;-63
2022/07/30 03:53:47;;;;;;;26.80;16.70;;;;;;;13.89;100.00;101650.09;5053084;28;20440;-63
2022/07/30 03:56:13;;;;;;;27.85;16.50;;;;;;;13.84;100.00;101651.81;5053471;28;20067;-63
2022/07/30 03:58:39;;;;;;;28.92;19.20;;;;;;;13.86;100.00;101660.72;5053206;28;20028;-63
2022/07/30 04:01:05;;;;;;;29.23;18.40;;;;;;;13.85;100.00;101663.31;5053058;28;20421;-63
2022/07/30 04:03:31;;;;;;;26.52;16.70;;;;;;;13.86;100.00;101665.09;5052861;28;20115;-62
2022/07/30 04:05:57;;;;;;;30.10;18.38;;;;;;;13.89;100.00;101670.44;5052853;28;20110;-64
2022/07/30 04:08:22;;;;;;;28.45;18.52;;;;;;;13.82;100.00;101672.19;5053118;28;20129;-63
2022/07/30 04:10:49;;;;;;;29.10;19.27;;;;;;;13.75;100.00;101673.06;5053311;28;20021;-63
2022/07/30 04:13:14;;;;;;;29.38;18.65;;;;;;;13.74;100.00;101671.28;5052990;28;20479;-63
2022/07/30 04:15:58;;;;;;;27.58;17.98;;;;;;;13.67;100.00;101674.78;5052850;28;20049;-62
2022/07/30 04:18:29;;;;;;;29.27;18.70;;;;;;;13.57;100.00;101685.38;5051496;28;20044;-65
2022/07/30 04:20:54;;;;;;;28.27;18.08;;;;;;;13.60;100.00;101684.47;5053151;28;20115;-63
2022/07/30 04:23:20;;;;;;;29.65;18.85;;;;;;;13.57;100.00;101690.69;5052880;28;20487;-63
2022/07/30 04:25:46;;;;;;;27.48;18.50;;;;;;;13.53;100.00;101688.00;5052910;28;20025;-63
2022/07/30 04:28:12;;;;;;;28.02;18.73;;;;;;;13.49;100.00;101681.78;5053037;28;20036;-66
2022/07/30 04:30:38;;;;;;;29.55;18.95;;;;;;;13.60;100.00;101682.72;5053008;28;20668;-66
2022/07/30 04:33:03;;;;;;;30.85;19.33;;;;;;;13.61;100.00;101680.94;5052932;28;20029;-63
2022/07/30 04:35:31;;;;;;;30.13;19.10;;;;;;;13.59;100.00;101691.56;5052687;28;20360;-66
2022/07/30 04:37:57;;;;;;;30.52;18.52;;;;;;;13.70;100.00;101688.97;5052778;28;20387;-66
2022/07/30 04:40:22;;;;;;;30.08;18.50;;;;;;;13.78;100.00;101697.84;5053037;28;20100;-66
2022/07/30 04:42:47;;;;;;;29.50;18.13;;;;;;;13.82;100.00;101698.78;5052545;28;20102;-66
2022/07/30 04:45:13;;;;;;;28.63;18.88;;;;;;;13.83;100.00;101695.22;5051044;28;20112;-66
2022/07/30 04:47:38;;;;;;;29.08;18.85;;;;;;;13.81;100.00;101699.66;5052698;28;20032;-66
2022/07/30 04:50:06;;;;;;;28.80;18.10;;;;;;;13.85;100.00;101705.84;5052221;28;20083;-66
2022/07/30 04:52:33;;;;;;;28.85;18.55;;;;;;;13.80;100.00;101708.50;5052345;28;20139;-66
2022/07/30 04:55:02;;;;;;;28.85;18.60;;;;;;;13.80;100.00;101713.81;5052898;28;20063;-66
2022/07/30 04:57:30;;;;;;;30.83;18.60;;;;;;;13.82;100.00;101713.81;5052428;28;20071;-65
2022/07/30 04:59:56;;;;;;;31.30;18.92;;;;;;;13.84;100.00;101709.41;5052352;28;20112;-66
2022/07/30 05:02:24;;;;;;;29.52;19.38;;;;;;;13.82;100.00;101720.03;5052549;28;20104;-66
2022/07/30 05:04:50;;;;;;;29.40;18.83;;;;;;;13.96;100.00;101722.72;5052585;28;20403;-65
2022/07/30 05:07:18;;;;;;;28.83;18.67;;;;;;;13.97;100.00;101720.97;5052518;28;20033;-65
2022/07/30 05:09:43;;;;;;;32.28;19.33;;;;;;;13.94;100.00;101717.41;5052111;28;20036;-65
2022/07/30 05:12:08;;;;;;;31.50;19.40;;;;;;;13.95;100.00;101713.88;5052372;28;20029;-65
2022/07/30 05:14:34;;;;;;;28.45;18.02;;;;;;;14.03;100.00;101718.34;5054955;28;20028;-66
2022/07/30 05:16:59;;;;;;;29.90;18.35;;;;;;;14.11;100.00;101721.91;5056480;28;20025;-66
2022/07/30 05:19:24;;;;;;;29.30;18.80;;;;;;;14.12;100.00;101715.72;5056033;28;20029;-63
2022/07/30 05:21:50;;;;;;;28.67;18.55;;;;;;;14.17;100.00;101719.28;5056150;28;20028;-63
2022/07/30 05:24:16;;;;;;;30.42;19.42;;;;;;;14.15;100.00;101715.72;5056405;28;20021;-63
2022/07/30 05:26:42;;;;;;;31.27;19.05;;;;;;;14.15;100.00;101715.72;5056173;28;20106;-63
2022/07/30 05:29:07;;;;;;;29.00;18.83;;;;;;;14.21;100.00;101721.06;5055919;28;20174;-63
2022/07/30 05:31:32;;;;;;;29.98;18.90;;;;;;;14.29;100.00;101718.44;5056240;28;20036;-63
2022/07/30 05:33:58;;;;;;;28.38;19.08;;;;;;;14.32;100.00;101718.44;5056320;28;20021;-64
2022/07/30 05:36:23;;;;;;;29.70;19.90;;;;;;;14.36;100.00;101721.97;5055722;28;20033;-63
2022/07/30 05:38:49;;;;;;;28.52;18.48;;;;;;;14.38;100.00;101726.41;5056056;28;20021;-62
2022/07/30 05:41:14;;;;;;;29.48;18.23;;;;;;;14.46;100.00;101734.44;5055778;28;20476;-63
2022/07/30 05:43:40;;;;;;;32.17;19.17;;;;;;;14.50;100.00;101728.22;5055871;28;20364;-63
2022/07/30 05:46:05;;;;;;;29.40;18.80;;;;;;;14.50;100.00;101722.03;5056010;28;20467;-63
2022/07/30 05:48:34;;;;;;;30.08;19.42;;;;;;;14.53;100.00;101733.53;5055576;28;20079;-63
2022/07/30 05:51:03;;;;;;;31.30;20.95;;;;;;;14.54;100.00;101739.78;5055411;28;20025;-63
2022/07/30 05:53:28;;;;;;;32.17;20.90;;;;;;;14.55;100.00;101739.78;5055539;28;20476;-63
2022/07/30 05:55:54;;;;;;;30.85;20.25;;;;;;;14.69;100.00;101733.63;5055495;28;20040;-63
2022/07/30 05:58:20;;;;;;;30.98;20.52;;;;;;;14.69;100.00;101730.97;5055394;28;20132;-63
2022/07/30 06:00:46;;;;;;;30.65;20.27;;;;;;;14.76;100.00;101736.28;5054165;28;20029;-63
2022/07/30 06:03:11;;;;;;;28.67;19.13;;;;;;;14.78;100.00;101733.63;5055405;28;20029;-63
2022/07/30 06:05:37;;;;;;;33.28;19.90;;;;;;;14.87;100.00;101735.41;5051642;28;20448;-64
2022/07/30 06:08:02;;;;;;;29.88;19.75;;;;;;;14.98;100.00;101741.63;5055448;28;20072;-63
2022/07/30 06:10:28;;;;;;;27.98;17.42;;;;;;;15.02;100.00;101742.53;5055455;28;20029;-63
2022/07/30 06:12:53;;;;;;;29.00;18.40;;;;;;;15.09;100.00;101744.31;5055424;28;20051;-64
2022/07/30 06:15:19;;;;;;;28.13;17.23;;;;;;;15.18;100.00;101746.94;5055034;28;20483;-63
2022/07/30 06:17:45;;;;;;;29.80;17.77;;;;;;;15.29;100.00;101742.50;5054884;28;20021;-64
2022/07/30 06:20:12;;;;;;;27.00;15.45;;;;;;;15.37;100.00;101755.81;5055132;28;20025;-63
2022/07/30 06:22:38;;;;;;;25.52;15.55;;;;;;;15.46;100.00;101749.59;5055158;28;20037;-64
2022/07/30 06:25:04;;;;;;;26.63;15.63;;;;;;;15.55;100.00;101746.00;5054189;28;20026;-64
2022/07/30 06:27:29;;;;;;;27.75;14.90;;;;;;;15.62;100.00;101751.31;5055060;28;20033;-64
2022/07/30 06:29:54;;;;;;;24.83;13.77;;;;;;;15.74;100.00;101754.84;5054763;28;20079;-63
2022/07/30 06:32:20;;;;;;;24.73;12.57;;;;;;;15.79;100.00;101747.78;5055204;28;20075;-64
2022/07/30 06:34:45;;;;;;;25.38;13.55;;;;;;;15.85;100.00;101755.75;5055332;28;20025;-64
2022/07/30 06:37:10;;;;;;;25.02;13.57;;;;;;;15.85;100.00;101758.41;5054787;28;20029;-64
2022/07/30 06:39:36;;;;;;;24.00;12.93;;;;;;;15.91;100.00;101757.50;5054503;28;20037;-64
2022/07/30 06:42:01;;;;;;;24.15;11.40;;;;;;;15.99;100.00;101751.25;5054843;28;20031;-64
2022/07/30 06:44:27;;;;;;;23.08;11.90;;;;;;;16.04;100.00;101764.56;5054754;28;20025;-64
2022/07/30 06:46:53;;;;;;;25.02;12.88;;;;;;;16.06;100.00;101760.09;5054926;28;20041;-63
2022/07/30 06:49:18;;;;;;;23.90;12.18;;;;;;;16.14;100.00;101766.31;5054629;28;20061;-63
2022/07/30 06:51:44;;;;;;;24.25;11.80;;;;;;;16.23;100.00;101764.50;5054435;28;20017;-64
2022/07/30 06:54:10;;;;;;;22.27;11.98;;;;;;;16.30;100.00;101761.78;5054414;28;20075;-63
2022/07/30 06:56:36;;;;;;;24.02;11.52;;;;;;;16.47;100.00;101758.13;5054459;28;20064;-64
2022/07/30 06:59:01;;;;;;;22.60;11.05;;;;;;;16.78;100.00;101763.31;5054163;28;20049;-64
2022/07/30 07:01:26;;;;;;;23.17;11.25;;;;;;;17.01;100.00;101763.19;5054807;28;20029;-64
2022/07/30 07:03:52;;;;;;;22.42;9.88;;;;;;;17.41;100.00;101766.34;5054230;28;20017;-64
2022/07/30 07:06:17;;;;;;;22.23;9.20;;;;;;;17.53;100.00;101764.47;5054323;28;20483;-64
2022/07/30 07:08:42;;;;;;;21.52;8.52;;;;;;;17.73;100.00;101769.63;5054116;28;20483;-64
2022/07/30 07:11:08;;;;;;;21.23;8.30;;;;;;;17.87;100.00;101775.69;5054051;28;20115;-63
2022/07/30 07:13:33;;;;;;;20.40;7.97;;;;;;;17.96;100.00;101774.75;5053413;28;20033;-65
2022/07/30 07:15:58;;;;;;;21.45;7.80;;;;;;;18.02;100.00;101779.13;5054369;28;20017;-64
2022/07/30 07:18:23;;;;;;;21.55;7.60;;;;;;;17.96;100.00;101780.09;5053964;28;20464;-65
2022/07/30 07:20:49;;;;;;;21.27;7.93;;;;;;;17.89;100.00;101781.03;5054171;28;20032;-64
2022/07/30 07:23:14;;;;;;;21.55;7.90;;;;;;;17.76;100.00;101777.59;5054281;28;20021;-64
2022/07/30 07:25:40;;;;;;;20.77;7.55;;;;;;;17.72;100.00;101776.75;5053803;28;20017;-63
2022/07/30 07:28:06;;;;;;;19.38;7.40;;;;;;;17.63;100.00;101774.16;5053961;28;20032;-64
2022/07/30 07:30:32;;;;;;;18.70;7.30;;;;;;;17.61;100.00;101784.00;5053702;28;20025;-64
2022/07/30 07:32:57;;;;;;;19.38;7.20;;;;;;;17.72;100.00;101775.84;5053625;28;20494;-64
2022/07/30 07:35:23;;;;;;;20.60;6.40;;;;;;;17.91;100.00;101782.81;5053842;28;20025;-64
2022/07/30 07:37:48;;;;;;;19.67;6.32;;;;;;;17.94;100.00;101784.59;5052592;28;20021;-65
2022/07/30 07:40:14;;;;;;;20.50;6.80;;;;;;;17.93;100.00;101780.13;5053479;28;20434;-64
2022/07/30 07:42:39;;;;;;;20.67;6.90;;;;;;;17.92;100.00;101776.56;5053748;28;20029;-63
2022/07/30 07:45:05;;;;;;;19.48;6.40;;;;;;;17.87;100.00;101785.53;5053611;28;20051;-65
2022/07/30 07:47:30;;;;;;;18.70;5.20;;;;;;;17.72;100.00;101784.78;5053329;28;20047;-63
2022/07/30 07:49:56;;;;;;;16.42;5.10;;;;;;;17.72;100.00;101782.13;5053752;28;20112;-64
2022/07/30 07:52:21;;;;;;;18.23;5.85;;;;;;;17.74;100.00;101777.63;5053166;28;20060;-63
2022/07/30 07:54:46;;;;;;;18.52;5.78;;;;;;;17.68;100.00;101775.03;5053244;28;20028;-63
2022/07/30 07:57:12;;;;;;;17.83;5.97;;;;;;;17.81;100.00;101785.56;5053772;28;20075;-66
2022/07/30 07:59:37;;;;;;;18.55;5.45;;;;;;;17.87;100.00;101782.84;5053379;28;20025;-66
2022/07/30 08:02:03;;;;;;;17.45;5.60;;;;;;;17.93;100.00;101775.66;5053606;28;20028;-66
2022/07/30 08:04:28;;;;;;;16.38;5.22;;;;;;;18.08;100.00;101779.06;5053286;28;20033;-66
2022/07/30 08:06:54;;;;;;;19.92;6.05;;;;;;;18.23;100.00;101778.88;5053373;28;20111;-66
2022/07/30 08:09:20;;;;;;;19.27;5.80;;;;;;;18.29;100.00;101780.59;5053165;28;20112;-66
2022/07/30 08:11:45;;;;;;;16.83;5.43;;;;;;;18.29;100.00;101788.63;5052781;28;20032;-66
2022/07/30 08:14:11;;;;;;;17.15;5.55;;;;;;;18.43;100.00;101781.28;5053179;28;20021;-64
2022/07/30 08:16:36;;;;;;;16.95;5.43;;;;;;;18.59;100.00;101781.06;5046034;28;20535;-66
2022/07/30 08:19:01;;;;;;;16.92;5.22;;;;;;;18.71;100.00;101775.56;5049471;28;20454;-65
2022/07/30 08:21:27;;;;;;;17.15;5.32;;;;;;;18.81;100.00;101774.50;5047111;28;20390;-65
2022/07/30 08:23:52;;;;;;;18.35;5.47;;;;;;;18.81;100.00;101773.59;5050920;28;20025;-65
2022/07/30 08:26:17;;;;;;;14.80;4.78;;;;;;;18.94;100.00;101771.66;5049907;28;20032;-66
2022/07/30 08:28:44;;;;;;;17.60;5.32;;;;;;;19.05;100.00;101775.03;5050865;28;20068;-65
2022/07/30 08:31:09;;;;;;;15.68;4.65;;;;;;;19.23;100.00;101771.16;5050931;28;20463;-65
2022/07/30 08:33:35;;;;;;;17.80;4.88;;;;;;;19.39;100.00;101778.94;5051111;28;20040;-66
2022/07/30 08:36:00;;;;;;;13.68;4.10;;;;;;;19.62;100.00;101776.72;5050489;28;20021;-66
2022/07/30 08:38:25;;;;;;;16.10;4.50;;;;;;;19.93;100.00;101781.53;5051129;28;20471;-65
2022/07/30 08:40:54;;;;;;;16.42;4.43;;;;;;;20.23;100.00;101778.25;5050653;28;20460;-66
2022/07/30 08:43:20;;;;;;;15.45;4.30;;;;;;;20.43;100.00;101776.03;5050720;28;20017;-65
2022/07/30 08:45:46;;;;;;;15.05;4.30;;;;;;;20.59;100.00;101776.56;5050178;28;20115;-66
2022/07/30 08:48:14;;;;;;;14.65;4.28;;;;;;;20.70;100.00;101774.53;5050048;28;20025;-67
2022/07/30 08:50:39;;;;;;;14.68;4.30;;;;;;;20.85;100.00;101778.69;5050605;28;20041;-68
2022/07/30 08:53:05;;;;;;;14.32;4.50;;;;;;;20.93;100.00;101777.63;5050819;28;20053;-66
2022/07/30 08:55:30;;;;;;;15.13;3.95;;;;;;;21.04;100.00;101781.81;5050189;28;20056;-67
2022/07/30 08:57:56;;;;;;;12.63;3.80;;;;;;;21.07;98.93;101779.03;5050995;28;20029;-67
2022/07/30 09:00:22;;;;;;;17.50;4.22;;;;;;;21.22;96.84;101769.69;5050305;28;20056;-66
2022/07/30 09:02:47;;;;;;;15.93;4.28;;;;;;;20.96;94.65;101774.84;5050024;28;20513;-66
2022/07/30 09:05:13;;;;;;;13.50;3.70;;;;;;;20.79;93.31;101772.56;5050289;28;20049;-66
2022/07/30 09:07:39;;;;;;;12.55;3.70;;;;;;;20.79;92.86;101773.44;5050513;28;20031;-66
2022/07/30 09:10:06;;;;;;;11.10;3.50;;;;;;;20.80;93.55;101768.97;5050404;28;20033;-66
2022/07/30 09:12:36;;;;;;;13.50;3.72;;;;;;;20.94;93.27;101771.31;5050788;28;20452;-66
2022/07/30 09:15:10;;;;;;;14.32;3.70;;;;;;;21.06;88.27;101781.78;5049871;28;20383;-66
2022/07/30 09:17:56;;;;;;;13.57;3.70;;;;;;;21.13;89.91;101783.38;5047921;28;20032;-66
2022/07/30 09:20:27;;;;;;;11.32;3.50;;;;;;;21.17;90.96;101779.69;5049970;28;20052;-65
2022/07/30 09:22:55;;;;;;;14.32;3.63;;;;;;;21.21;89.09;101788.56;5050137;28;20108;-68
2022/07/30 09:25:41;;;;;;;13.90;3.50;;;;;;;21.55;89.25;101782.31;5049516;28;20120;-71
2022/07/30 09:28:08;;;;;;;15.32;3.40;;;;;;;21.83;86.42;101790.53;5049566;28;20033;-68
2022/07/30 09:30:47;;;;;;;13.63;3.40;;;;;;;22.01;84.33;101801.72;5050092;28;20033;-67
2022/07/30 09:33:13;;;;;;;14.30;3.47;;;;;;;22.07;84.47;101799.72;5050250;28;20025;-70
2022/07/30 09:35:40;;;;;;;13.60;3.50;;;;;;;22.19;81.53;101801.19;5050374;28;20025;-69
2022/07/30 09:38:05;;;;;;;11.77;3.25;;;;;;;22.09;81.31;101805.03;5050016;28;20060;-69
2022/07/30 09:40:31;;;;;;;11.93;3.30;;;;;;;22.34;82.83;101798.97;5050035;28;20140;-67
2022/07/30 09:43:10;;;;;;;12.52;3.22;;;;;;;22.68;82.07;101796.13;5050084;28;20032;-69
2022/07/30 09:45:48;;;;;;;13.65;3.38;;;;;;;22.78;79.59;101794.03;5050205;28;20367;-68
2022/07/30 09:48:21;;;;;;;11.38;3.30;;;;;;;22.79;80.24;101785.03;5050247;28;20040;-67
2022/07/30 09:50:48;;;;;;;13.13;3.50;;;;;;;23.45;77.24;101784.66;5049610;28;20479;-67
2022/07/30 09:53:14;;;;;;;11.73;3.40;;;;;;;24.70;72.49;101778.25;5049547;28;20055;-67
2022/07/30 09:55:40;;;;;;;11.57;3.10;;;;;;;25.72;65.49;101781.22;5049978;28;20148;-70
2022/07/30 09:58:06;;;;;;;9.45;2.80;;;;;;;26.44;50.26;101777.91;5048459;28;20075;-66
2022/07/30 10:00:37;;;;;;;15.68;3.40;;;;;;;27.53;44.50;101773.44;5051256;28;20041;-66
2022/07/30 10:03:24;;;;;;;8.70;2.70;;;;;;;29.24;41.07;101767.59;5053337;28;20025;-67
2022/07/30 10:05:52;;;;;;;10.10;2.90;;;;;;;30.24;34.51;101775.91;5052646;28;20029;-66
2022/07/30 10:08:17;;;;;;;11.35;2.70;;;;;;;31.37;33.09;101770.31;5053396;28;20074;-66
2022/07/30 10:10:44;;;;;;;11.27;2.90;;;;;;;32.10;31.82;101767.00;5053756;28;20037;-66
2022/07/30 10:13:13;;;;;;;11.20;2.92;;;;;;;32.38;30.87;101769.59;5053364;28;20017;-65
2022/07/30 10:15:38;;;;;;;10.63;2.80;;;;;;;32.87;29.99;101774.16;5053142;28;20079;-66
2022/07/30 10:18:05;;;;;;;10.93;2.90;;;;;;;32.30;30.03;101765.56;5053030;28;20033;-65
2022/07/30 10:20:30;;;;;;;9.30;3.00;;;;;;;31.42;30.34;101768.16;5053290;28;20021;-65
2022/07/30 10:22:56;;;;;;;11.55;2.92;;;;;;;30.20;33.27;101766.19;5053323;28;20108;-65
2022/07/30 10:25:23;;;;;;;10.23;2.85;;;;;;;30.54;32.55;101765.88;5054547;28;20036;-65
2022/07/30 10:27:49;;;;;;;9.60;2.78;;;;;;;30.69;31.43;101769.44;5054788;28;20513;-65
2022/07/30 10:30:16;;;;;;;10.20;2.90;;;;;;;30.63;33.05;101764.41;5083016;28;20032;-65
2022/07/30 10:32:43;;;;;;;9.20;2.60;;;;;;;30.77;31.27;101767.06;5055094;28;20041;-65
2022/07/30 10:35:09;;;;;;;9.60;2.60;;;;;;;31.08;30.89;101765.03;5054657;28;20025;-66
2022/07/30 10:37:38;;;;;;;8.98;2.70;;;;;;;31.53;29.87;101771.03;5054935;28;20029;-65
2022/07/30 10:40:25;;;;;;;8.80;2.63;;;;;;;32.36;30.35;101760.63;5054899;28;20033;-65
2022/07/30 10:43:06;;;;;;;6.22;2.30;;;;;;;33.28;28.89;101764.66;5051241;28;20485;-65
2022/07/30 10:46:18;;;;;;;10.85;2.67;;;;;;;34.10;27.57;101776.50;5054820;28;20029;-65
2022/07/30 10:48:44;;;;;;;12.70;2.55;;;;;;;32.72;28.51;101767.09;5028330;28;20439;-65
2022/07/30 10:51:10;;;;;;;9.20;2.60;;;;;;;33.31;28.43;101761.66;5032211;28;20034;-65
2022/07/30 10:53:35;;;;;;;6.85;2.60;;;;;;;34.15;27.03;101774.25;5031939;28;20514;-65
2022/07/30 10:56:23;;;;;;;8.30;2.70;;;;;;;35.45;27.63;101767.06;5032521;28;20045;-65
2022/07/30 10:59:01;;;;;;;12.18;2.90;;;;;;;35.27;26.48;101764.00;5032484;28;20054;-65
2022/07/30 11:01:46;;;;;;;9.48;2.70;;;;;;;35.43;26.12;101764.47;5032569;28;20036;-65
2022/07/30 11:04:27;;;;;;;8.88;2.80;;;;;;;35.30;26.13;101757.41;5032287;28;20037;-65
2022/07/30 11:07:28;;;;;;;10.05;2.60;;;;;;;36.54;25.20;101758.31;5032426;28;20042;-66